sensor_id;sensor_type;location;lat;lon;timestamp;temperature;humidity
26503;DHT22;14177;51.520;6.764;2023-03-01T00:01:39;-0.90;99.90
26503;DHT22;14177;51.520;6.764;2023-03-01T00:04:06;-1.00;99.90
26503;DHT22;14177;51.520;6.764;2023-03-01T00:06:33;-0.90;99.90
26503;DHT22;14177;51.520;6.764;2023-03-01T00:09:02;-1.00;99.90
26503;DHT22;14177;51.520;6.764;2023-03-01T00:11:31;-1.00;99.90
26503;DHT22;14177;51.520;6.764;2023-03-01T00:14:00;-1.00;99.90
26503;DHT22;14177;51.520;6.764;2023-03-01T00:16:31;-1.10;99.90
26503;DHT22;14177;51.520;6.764;2023-03-01T00:19:00;-1.10;99.90
26503;DHT22;14177;51.520;6.764;2023-03-01T00:21:28;-1.10;99.90
26503;DHT22;14177;51.520;6.764;2023-03-01T00:23:55;-1.10;99.90
26503;DHT22;14177;51.520;6.764;2023-03-01T00:26:24;-1.20;99.90
26503;DHT22;14177;51.520;6.764;2023-03-01T00:28:53;-1.20;99.90
26503;DHT22;14177;51.520;6.764;2023-03-01T00:31:24;-1.20;99.90
26503;DHT22;14177;51.520;6.764;2023-03-01T00:33:58;-1.20;99.90
26503;DHT22;14177;51.520;6.764;2023-03-01T00:36:30;-1.30;99.90
26503;DHT22;14177;51.520;6.764;2023-03-01T00:39:00;-1.30;99.90
26503;DHT22;14177;51.520;6.764;2023-03-01T00:41:27;-1.30;99.90
26503;DHT22;14177;51.520;6.764;2023-03-01T00:43:55;-1.30;99.90
26503;DHT22;14177;51.520;6.764;2023-03-01T00:46:25;-1.40;99.90
26503;DHT22;14177;51.520;6.764;2023-03-01T00:48:54;-1.40;99.90
26503;DHT22;14177;51.520;6.764;2023-03-01T00:51:23;-1.50;99.90
26503;DHT22;14177;51.520;6.764;2023-03-01T00:53:58;-1.50;99.90
26503;DHT22;14177;51.520;6.764;2023-03-01T00:56:26;-1.50;99.90
26503;DHT22;14177;51.520;6.764;2023-03-01T00:58:54;-1.50;99.90
26503;DHT22;14177;51.520;6.764;2023-03-01T01:01:24;-1.60;99.90
26503;DHT22;14177;51.520;6.764;2023-03-01T01:03:59;-1.60;99.90
26503;DHT22;14177;51.520;6.764;2023-03-01T01:06:31;-1.60;99.90
26503;DHT22;14177;51.520;6.764;2023-03-01T01:09:05;-1.60;99.90
26503;DHT22;14177;51.520;6.764;2023-03-01T01:11:34;-1.70;99.90
26503;DHT22;14177;51.520;6.764;2023-03-01T01:14:04;-1.70;99.90
26503;DHT22;14177;51.520;6.764;2023-03-01T01:16:31;-1.80;99.90
26503;DHT22;14177;51.520;6.764;2023-03-01T01:18:59;-1.80;99.90
26503;DHT22;14177;51.520;6.764;2023-03-01T01:21:27;-1.80;99.90
26503;DHT22;14177;51.520;6.764;2023-03-01T01:23:56;-1.80;99.90
26503;DHT22;14177;51.520;6.764;2023-03-01T01:26:28;-1.80;99.90
26503;DHT22;14177;51.520;6.764;2023-03-01T01:28:59;-1.90;99.90
26503;DHT22;14177;51.520;6.764;2023-03-01T01:31:28;-1.90;99.90
26503;DHT22;14177;51.520;6.764;2023-03-01T01:33:57;-1.90;99.90
26503;DHT22;14177;51.520;6.764;2023-03-01T01:36:26;-1.90;99.90
26503;DHT22;14177;51.520;6.764;2023-03-01T01:38:54;-1.90;99.90
26503;DHT22;14177;51.520;6.764;2023-03-01T01:41:22;-1.90;99.90
26503;DHT22;14177;51.520;6.764;2023-03-01T01:52:19;-2.00;99.90
26503;DHT22;14177;51.520;6.764;2023-03-01T01:57:39;-2.10;99.90
26503;DHT22;14177;51.520;6.764;2023-03-01T02:00:13;-2.10;99.90
26503;DHT22;14177;51.520;6.764;2023-03-01T02:02:45;-2.10;99.90
26503;DHT22;14177;51.520;6.764;2023-03-01T02:08:08;-2.20;99.90
26503;DHT22;14177;51.520;6.764;2023-03-01T02:10:38;-2.20;99.90
26503;DHT22;14177;51.520;6.764;2023-03-01T02:13:07;-2.20;99.90
26503;DHT22;14177;51.520;6.764;2023-03-01T02:15:36;-2.20;99.90
26503;DHT22;14177;51.520;6.764;2023-03-01T02:18:06;-2.20;99.90
26503;DHT22;14177;51.520;6.764;2023-03-01T02:20:40;-2.20;99.90
26503;DHT22;14177;51.520;6.764;2023-03-01T02:23:22;-2.30;99.90
26503;DHT22;14177;51.520;6.764;2023-03-01T02:26:01;-2.30;99.90
26503;DHT22;14177;51.520;6.764;2023-03-01T02:28:37;-2.30;99.90
26503;DHT22;14177;51.520;6.764;2023-03-01T02:31:07;-2.30;99.90
26503;DHT22;14177;51.520;6.764;2023-03-01T02:33:55;-2.40;99.90
26503;DHT22;14177;51.520;6.764;2023-03-01T02:36:26;-2.40;99.90
26503;DHT22;14177;51.520;6.764;2023-03-01T02:38:59;-2.40;99.90
26503;DHT22;14177;51.520;6.764;2023-03-01T02:41:31;-2.40;99.90
26503;DHT22;14177;51.520;6.764;2023-03-01T02:44:05;-2.50;99.90
26503;DHT22;14177;51.520;6.764;2023-03-01T02:46:42;-2.50;99.90
26503;DHT22;14177;51.520;6.764;2023-03-01T02:49:21;-2.50;99.90
26503;DHT22;14177;51.520;6.764;2023-03-01T02:55:10;-2.50;99.90
26503;DHT22;14177;51.520;6.764;2023-03-01T02:57:43;-2.50;99.90
26503;DHT22;14177;51.520;6.764;2023-03-01T03:00:14;-2.60;99.90
26503;DHT22;14177;51.520;6.764;2023-03-01T03:02:49;-2.60;99.90
26503;DHT22;14177;51.520;6.764;2023-03-01T03:05:23;-2.60;99.90
26503;DHT22;14177;51.520;6.764;2023-03-01T03:07:55;-2.50;99.90
26503;DHT22;14177;51.520;6.764;2023-03-01T03:10:26;-2.60;99.90
26503;DHT22;14177;51.520;6.764;2023-03-01T03:12:58;-2.60;99.90
26503;DHT22;14177;51.520;6.764;2023-03-01T03:15:28;-2.60;99.90
26503;DHT22;14177;51.520;6.764;2023-03-01T03:17:57;-2.60;99.90
26503;DHT22;14177;51.520;6.764;2023-03-01T03:20:26;-2.60;99.90
26503;DHT22;14177;51.520;6.764;2023-03-01T03:22:56;-2.60;99.90
26503;DHT22;14177;51.520;6.764;2023-03-01T03:25:29;-2.60;99.90
26503;DHT22;14177;51.520;6.764;2023-03-01T03:27:56;-2.60;99.90
26503;DHT22;14177;51.520;6.764;2023-03-01T03:30:31;-2.70;99.90
26503;DHT22;14177;51.520;6.764;2023-03-01T03:32:59;-2.70;99.90
26503;DHT22;14177;51.520;6.764;2023-03-01T03:35:32;-2.70;99.90
26503;DHT22;14177;51.520;6.764;2023-03-01T03:38:03;-2.70;99.90
26503;DHT22;14177;51.520;6.764;2023-03-01T03:40:41;-2.70;99.90
26503;DHT22;14177;51.520;6.764;2023-03-01T03:43:30;-2.70;99.90
26503;DHT22;14177;51.520;6.764;2023-03-01T03:45:59;-2.70;99.90
26503;DHT22;14177;51.520;6.764;2023-03-01T03:48:27;-2.80;99.90
26503;DHT22;14177;51.520;6.764;2023-03-01T03:50:55;-2.80;99.90
26503;DHT22;14177;51.520;6.764;2023-03-01T03:53:26;-2.80;99.90
26503;DHT22;14177;51.520;6.764;2023-03-01T03:55:55;-2.80;99.90
26503;DHT22;14177;51.520;6.764;2023-03-01T03:58:24;-2.80;99.90
26503;DHT22;14177;51.520;6.764;2023-03-01T04:00:54;-2.80;99.90
26503;DHT22;14177;51.520;6.764;2023-03-01T04:03:24;-2.80;99.90
26503;DHT22;14177;51.520;6.764;2023-03-01T04:05:52;-2.80;99.90
26503;DHT22;14177;51.520;6.764;2023-03-01T04:08:21;-2.80;99.90
26503;DHT22;14177;51.520;6.764;2023-03-01T04:10:51;-2.80;99.90
26503;DHT22;14177;51.520;6.764;2023-03-01T04:13:23;-2.80;99.90
26503;DHT22;14177;51.520;6.764;2023-03-01T04:15:52;-2.80;99.90
26503;DHT22;14177;51.520;6.764;2023-03-01T04:18:23;-2.80;99.90
26503;DHT22;14177;51.520;6.764;2023-03-01T04:20:53;-2.80;99.90
26503;DHT22;14177;51.520;6.764;2023-03-01T04:23:21;-2.80;99.90
26503;DHT22;14177;51.520;6.764;2023-03-01T04:25:55;-2.80;99.90
26503;DHT22;14177;51.520;6.764;2023-03-01T04:28:27;-2.80;99.90
26503;DHT22;14177;51.520;6.764;2023-03-01T04:30:56;-2.80;99.90
26503;DHT22;14177;51.520;6.764;2023-03-01T04:33:25;-2.80;99.90
26503;DHT22;14177;51.520;6.764;2023-03-01T04:35:52;-2.90;99.90
26503;DHT22;14177;51.520;6.764;2023-03-01T04:38:20;-2.90;99.90
26503;DHT22;14177;51.520;6.764;2023-03-01T04:40:47;-2.90;99.90
26503;DHT22;14177;51.520;6.764;2023-03-01T04:43:15;-2.90;99.90
26503;DHT22;14177;51.520;6.764;2023-03-01T04:45:42;-2.90;99.90
26503;DHT22;14177;51.520;6.764;2023-03-01T04:48:09;-3.00;99.90
26503;DHT22;14177;51.520;6.764;2023-03-01T04:50:36;-3.00;99.90
26503;DHT22;14177;51.520;6.764;2023-03-01T04:53:03;-3.00;99.90
26503;DHT22;14177;51.520;6.764;2023-03-01T04:55:30;-3.00;99.90
26503;DHT22;14177;51.520;6.764;2023-03-01T04:57:58;-3.00;99.90
26503;DHT22;14177;51.520;6.764;2023-03-01T05:00:25;-3.00;99.90
26503;DHT22;14177;51.520;6.764;2023-03-01T05:02:54;-3.00;99.90
26503;DHT22;14177;51.520;6.764;2023-03-01T05:05:24;-3.10;99.90
26503;DHT22;14177;51.520;6.764;2023-03-01T05:07:58;-3.10;99.90
26503;DHT22;14177;51.520;6.764;2023-03-01T05:10:29;-3.10;99.90
26503;DHT22;14177;51.520;6.764;2023-03-01T05:12:58;-3.10;99.90
26503;DHT22;14177;51.520;6.764;2023-03-01T05:15:27;-3.20;99.90
26503;DHT22;14177;51.520;6.764;2023-03-01T05:17:58;-3.20;99.90
26503;DHT22;14177;51.520;6.764;2023-03-01T05:20:27;-3.20;99.90
26503;DHT22;14177;51.520;6.764;2023-03-01T05:22:57;-3.20;99.90
26503;DHT22;14177;51.520;6.764;2023-03-01T05:25:26;-3.30;99.90
26503;DHT22;14177;51.520;6.764;2023-03-01T05:27:54;-3.30;99.90
26503;DHT22;14177;51.520;6.764;2023-03-01T05:30:21;-3.30;99.90
26503;DHT22;14177;51.520;6.764;2023-03-01T05:32:49;-3.30;99.90
26503;DHT22;14177;51.520;6.764;2023-03-01T05:35:22;-3.40;99.90
26503;DHT22;14177;51.520;6.764;2023-03-01T05:37:50;-3.40;99.90
26503;DHT22;14177;51.520;6.764;2023-03-01T05:40:23;-3.40;99.90
26503;DHT22;14177;51.520;6.764;2023-03-01T05:42:56;-3.40;99.90
26503;DHT22;14177;51.520;6.764;2023-03-01T05:45:25;-3.40;99.90
26503;DHT22;14177;51.520;6.764;2023-03-01T05:47:54;-3.40;99.90
26503;DHT22;14177;51.520;6.764;2023-03-01T05:50:24;-3.40;99.90
26503;DHT22;14177;51.520;6.764;2023-03-01T05:53:11;-3.40;99.90
26503;DHT22;14177;51.520;6.764;2023-03-01T05:55:40;-3.40;99.90
26503;DHT22;14177;51.520;6.764;2023-03-01T05:58:14;-3.40;99.90
26503;DHT22;14177;51.520;6.764;2023-03-01T06:00:44;-3.30;99.90
26503;DHT22;14177;51.520;6.764;2023-03-01T06:03:13;-3.20;99.90
26503;DHT22;14177;51.520;6.764;2023-03-01T06:05:42;-3.20;99.90
26503;DHT22;14177;51.520;6.764;2023-03-01T06:08:11;-3.10;99.90
26503;DHT22;14177;51.520;6.764;2023-03-01T06:10:39;-3.00;99.90
26503;DHT22;14177;51.520;6.764;2023-03-01T06:13:06;-3.00;99.90
26503;DHT22;14177;51.520;6.764;2023-03-01T06:15:33;-2.90;99.90
26503;DHT22;14177;51.520;6.764;2023-03-01T06:18:00;-2.90;99.90
26503;DHT22;14177;51.520;6.764;2023-03-01T06:20:28;-2.80;99.90
26503;DHT22;14177;51.520;6.764;2023-03-01T06:22:56;-2.80;99.90
26503;DHT22;14177;51.520;6.764;2023-03-01T06:25:25;-2.70;99.90
26503;DHT22;14177;51.520;6.764;2023-03-01T06:27:53;-2.70;99.90
26503;DHT22;14177;51.520;6.764;2023-03-01T06:30:22;-2.70;99.90
26503;DHT22;14177;51.520;6.764;2023-03-01T06:32:51;-2.70;99.90
26503;DHT22;14177;51.520;6.764;2023-03-01T06:35:19;-2.70;99.90
26503;DHT22;14177;51.520;6.764;2023-03-01T06:37:47;-2.70;99.90
26503;DHT22;14177;51.520;6.764;2023-03-01T06:40:15;-2.70;99.90
26503;DHT22;14177;51.520;6.764;2023-03-01T06:42:47;-2.70;99.90
26503;DHT22;14177;51.520;6.764;2023-03-01T06:45:17;-2.70;99.90
26503;DHT22;14177;51.520;6.764;2023-03-01T06:47:45;-2.70;99.90
26503;DHT22;14177;51.520;6.764;2023-03-01T06:50:13;-2.70;99.90
26503;DHT22;14177;51.520;6.764;2023-03-01T06:52:41;-2.60;99.90
26503;DHT22;14177;51.520;6.764;2023-03-01T06:55:11;-2.70;99.90
26503;DHT22;14177;51.520;6.764;2023-03-01T06:57:39;-2.60;99.90
26503;DHT22;14177;51.520;6.764;2023-03-01T07:00:06;-2.60;99.90
26503;DHT22;14177;51.520;6.764;2023-03-01T07:02:34;-2.50;99.90
26503;DHT22;14177;51.520;6.764;2023-03-01T07:05:01;-2.50;99.90
26503;DHT22;14177;51.520;6.764;2023-03-01T07:07:29;-2.50;99.90
26503;DHT22;14177;51.520;6.764;2023-03-01T07:09:56;-2.50;99.90
26503;DHT22;14177;51.520;6.764;2023-03-01T07:12:23;-2.50;99.90
26503;DHT22;14177;51.520;6.764;2023-03-01T07:14:51;-2.50;99.90
26503;DHT22;14177;51.520;6.764;2023-03-01T07:17:20;-2.40;99.90
26503;DHT22;14177;51.520;6.764;2023-03-01T07:19:47;-2.20;99.90
26503;DHT22;14177;51.520;6.764;2023-03-01T07:22:14;-1.90;99.90
26503;DHT22;14177;51.520;6.764;2023-03-01T07:24:42;-1.60;99.90
26503;DHT22;14177;51.520;6.764;2023-03-01T07:27:10;-1.20;99.90
26503;DHT22;14177;51.520;6.764;2023-03-01T07:29:37;-0.70;99.90
26503;DHT22;14177;51.520;6.764;2023-03-01T07:32:05;-0.30;99.90
26503;DHT22;14177;51.520;6.764;2023-03-01T07:34:33;0.10;99.90
26503;DHT22;14177;51.520;6.764;2023-03-01T07:37:01;0.50;99.90
26503;DHT22;14177;51.520;6.764;2023-03-01T07:39:29;0.80;99.90
26503;DHT22;14177;51.520;6.764;2023-03-01T07:41:56;1.20;99.90
26503;DHT22;14177;51.520;6.764;2023-03-01T07:44:23;1.40;99.90
26503;DHT22;14177;51.520;6.764;2023-03-01T07:46:50;1.70;99.90
26503;DHT22;14177;51.520;6.764;2023-03-01T07:49:18;2.00;99.90
26503;DHT22;14177;51.520;6.764;2023-03-01T07:51:46;2.20;99.90
26503;DHT22;14177;51.520;6.764;2023-03-01T07:54:13;2.50;99.90
26503;DHT22;14177;51.520;6.764;2023-03-01T07:56:40;2.70;99.90
26503;DHT22;14177;51.520;6.764;2023-03-01T07:59:07;3.00;99.90
26503;DHT22;14177;51.520;6.764;2023-03-01T08:01:35;3.30;99.90
26503;DHT22;14177;51.520;6.764;2023-03-01T08:04:05;3.60;99.90
26503;DHT22;14177;51.520;6.764;2023-03-01T08:06:35;3.90;99.90
26503;DHT22;14177;51.520;6.764;2023-03-01T08:09:02;4.10;99.90
26503;DHT22;14177;51.520;6.764;2023-03-01T08:11:29;4.30;99.90
26503;DHT22;14177;51.520;6.764;2023-03-01T08:13:57;4.50;99.90
26503;DHT22;14177;51.520;6.764;2023-03-01T08:16:24;4.70;99.10
26503;DHT22;14177;51.520;6.764;2023-03-01T08:18:52;4.80;99.00
26503;DHT22;14177;51.520;6.764;2023-03-01T08:21:19;5.00;99.80
26503;DHT22;14177;51.520;6.764;2023-03-01T08:23:46;5.20;99.50
26503;DHT22;14177;51.520;6.764;2023-03-01T08:26:14;5.50;97.20
26503;DHT22;14177;51.520;6.764;2023-03-01T08:28:44;5.80;94.80
26503;DHT22;14177;51.520;6.764;2023-03-01T08:31:23;6.00;93.90
26503;DHT22;14177;51.520;6.764;2023-03-01T08:33:53;6.10;90.00
26503;DHT22;14177;51.520;6.764;2023-03-01T08:36:30;6.30;90.60
26503;DHT22;14177;51.520;6.764;2023-03-01T08:38:59;6.50;87.50
26503;DHT22;14177;51.520;6.764;2023-03-01T08:41:27;6.70;83.00
26503;DHT22;14177;51.520;6.764;2023-03-01T08:43:55;6.90;81.70
26503;DHT22;14177;51.520;6.764;2023-03-01T08:46:27;7.00;79.00
26503;DHT22;14177;51.520;6.764;2023-03-01T08:48:55;7.30;77.90
26503;DHT22;14177;51.520;6.764;2023-03-01T08:51:24;7.50;73.70
26503;DHT22;14177;51.520;6.764;2023-03-01T08:53:52;7.60;72.20
26503;DHT22;14177;51.520;6.764;2023-03-01T08:56:19;7.80;71.30
26503;DHT22;14177;51.520;6.764;2023-03-01T08:58:48;7.80;65.60
26503;DHT22;14177;51.520;6.764;2023-03-01T09:01:17;7.80;68.10
26503;DHT22;14177;51.520;6.764;2023-03-01T09:03:48;7.90;67.70
26503;DHT22;14177;51.520;6.764;2023-03-01T09:06:15;8.20;68.40
26503;DHT22;14177;51.520;6.764;2023-03-01T09:08:46;8.40;67.20
26503;DHT22;14177;51.520;6.764;2023-03-01T09:11:34;8.50;65.00
26503;DHT22;14177;51.520;6.764;2023-03-01T09:14:01;8.70;64.00
26503;DHT22;14177;51.520;6.764;2023-03-01T09:16:32;8.60;64.00
26503;DHT22;14177;51.520;6.764;2023-03-01T09:19:03;8.90;62.40
26503;DHT22;14177;51.520;6.764;2023-03-01T09:21:30;9.00;61.80
26503;DHT22;14177;51.520;6.764;2023-03-01T09:24:12;9.20;61.60
26503;DHT22;14177;51.520;6.764;2023-03-01T09:26:41;9.50;60.70
26503;DHT22;14177;51.520;6.764;2023-03-01T09:29:08;9.20;58.80
26503;DHT22;14177;51.520;6.764;2023-03-01T09:31:36;9.30;60.40
26503;DHT22;14177;51.520;6.764;2023-03-01T09:34:03;9.40;60.00
26503;DHT22;14177;51.520;6.764;2023-03-01T09:36:31;9.50;58.90
26503;DHT22;14177;51.520;6.764;2023-03-01T09:39:00;9.50;57.70
26503;DHT22;14177;51.520;6.764;2023-03-01T09:41:50;9.50;57.90
26503;DHT22;14177;51.520;6.764;2023-03-01T09:47:28;9.50;56.20
26503;DHT22;14177;51.520;6.764;2023-03-01T09:50:18;9.60;57.60
26503;DHT22;14177;51.520;6.764;2023-03-01T09:55:50;9.70;56.10
26503;DHT22;14177;51.520;6.764;2023-03-01T09:58:32;10.00;56.00
26503;DHT22;14177;51.520;6.764;2023-03-01T10:04:16;9.90;54.80
26503;DHT22;14177;51.520;6.764;2023-03-01T10:07:01;10.10;55.30
26503;DHT22;14177;51.520;6.764;2023-03-01T10:09:55;10.20;54.50
26503;DHT22;14177;51.520;6.764;2023-03-01T10:12:27;10.20;54.00
26503;DHT22;14177;51.520;6.764;2023-03-01T10:15:19;10.20;53.60
26503;DHT22;14177;51.520;6.764;2023-03-01T10:18:00;10.10;53.10
26503;DHT22;14177;51.520;6.764;2023-03-01T10:23:12;9.90;54.50
26503;DHT22;14177;51.520;6.764;2023-03-01T10:30:54;10.70;53.20
26503;DHT22;14177;51.520;6.764;2023-03-01T10:33:26;11.00;52.40
26503;DHT22;14177;51.520;6.764;2023-03-01T10:36:03;11.10;51.80
26503;DHT22;14177;51.520;6.764;2023-03-01T10:38:33;11.00;52.10
26503;DHT22;14177;51.520;6.764;2023-03-01T10:41:14;11.10;51.80
26503;DHT22;14177;51.520;6.764;2023-03-01T10:43:50;11.20;51.20
26503;DHT22;14177;51.520;6.764;2023-03-01T10:46:33;11.30;50.70
26503;DHT22;14177;51.520;6.764;2023-03-01T10:49:19;11.30;51.60
26503;DHT22;14177;51.520;6.764;2023-03-01T10:51:48;11.30;50.30
26503;DHT22;14177;51.520;6.764;2023-03-01T10:57:03;11.60;50.90
26503;DHT22;14177;51.520;6.764;2023-03-01T10:59:36;11.60;49.90
26503;DHT22;14177;51.520;6.764;2023-03-01T11:02:18;11.50;49.00
26503;DHT22;14177;51.520;6.764;2023-03-01T11:07:51;11.60;49.60
26503;DHT22;14177;51.520;6.764;2023-03-01T11:10:34;11.80;50.30
26503;DHT22;14177;51.520;6.764;2023-03-01T11:13:15;11.90;49.90
26503;DHT22;14177;51.520;6.764;2023-03-01T11:16:05;12.30;50.10
26503;DHT22;14177;51.520;6.764;2023-03-01T11:18:34;12.50;48.30
26503;DHT22;14177;51.520;6.764;2023-03-01T11:21:15;12.40;47.40
26503;DHT22;14177;51.520;6.764;2023-03-01T11:23:45;12.30;48.00
26503;DHT22;14177;51.520;6.764;2023-03-01T11:26:15;12.40;48.00
26503;DHT22;14177;51.520;6.764;2023-03-01T11:28:48;12.30;47.40
26503;DHT22;14177;51.520;6.764;2023-03-01T11:31:19;12.40;48.60
26503;DHT22;14177;51.520;6.764;2023-03-01T11:34:07;12.70;48.80
26503;DHT22;14177;51.520;6.764;2023-03-01T11:36:53;13.10;48.40
26503;DHT22;14177;51.520;6.764;2023-03-01T11:45:50;13.80;46.40
26503;DHT22;14177;51.520;6.764;2023-03-01T11:51:37;13.90;45.20
26503;DHT22;14177;51.520;6.764;2023-03-01T11:54:13;13.90;45.80
26503;DHT22;14177;51.520;6.764;2023-03-01T12:12:34;14.20;45.40
26503;DHT22;14177;51.520;6.764;2023-03-01T12:15:38;14.20;45.20
26503;DHT22;14177;51.520;6.764;2023-03-01T12:21:29;14.50;46.20
26503;DHT22;14177;51.520;6.764;2023-03-01T12:27:06;14.70;45.70
26503;DHT22;14177;51.520;6.764;2023-03-01T12:33:34;15.00;44.50
26503;DHT22;14177;51.520;6.764;2023-03-01T12:47:58;14.80;45.20
26503;DHT22;14177;51.520;6.764;2023-03-01T12:50:42;14.60;44.30
26503;DHT22;14177;51.520;6.764;2023-03-01T12:53:35;14.40;43.70
26503;DHT22;14177;51.520;6.764;2023-03-01T12:56:21;14.30;46.30
26503;DHT22;14177;51.520;6.764;2023-03-01T12:59:14;14.40;44.60
26503;DHT22;14177;51.520;6.764;2023-03-01T13:02:04;14.50;44.90
26503;DHT22;14177;51.520;6.764;2023-03-01T13:05:14;14.70;45.30
26503;DHT22;14177;51.520;6.764;2023-03-01T13:07:58;15.00;44.50
26503;DHT22;14177;51.520;6.764;2023-03-01T13:11:01;15.00;44.40
26503;DHT22;14177;51.520;6.764;2023-03-01T13:13:30;14.90;43.10
26503;DHT22;14177;51.520;6.764;2023-03-01T13:19:23;14.50;43.80
26503;DHT22;14177;51.520;6.764;2023-03-01T13:21:53;14.40;44.50
26503;DHT22;14177;51.520;6.764;2023-03-01T13:27:20;14.50;45.00
26503;DHT22;14177;51.520;6.764;2023-03-01T13:29:58;14.60;45.20
26503;DHT22;14177;51.520;6.764;2023-03-01T13:32:32;14.70;44.80
26503;DHT22;14177;51.520;6.764;2023-03-01T13:37:47;14.40;45.70
26503;DHT22;14177;51.520;6.764;2023-03-01T13:42:52;14.20;45.60
26503;DHT22;14177;51.520;6.764;2023-03-01T13:45:42;14.30;45.00
26503;DHT22;14177;51.520;6.764;2023-03-01T13:48:33;14.30;44.50
26503;DHT22;14177;51.520;6.764;2023-03-01T13:51:03;14.20;45.20
26503;DHT22;14177;51.520;6.764;2023-03-01T13:53:41;14.20;45.20
26503;DHT22;14177;51.520;6.764;2023-03-01T13:56:17;14.20;45.30
26503;DHT22;14177;51.520;6.764;2023-03-01T13:59:23;14.00;45.00
26503;DHT22;14177;51.520;6.764;2023-03-01T14:01:57;13.90;45.30
26503;DHT22;14177;51.520;6.764;2023-03-01T14:04:37;14.10;45.80
26503;DHT22;14177;51.520;6.764;2023-03-01T14:07:27;14.10;45.00
26503;DHT22;14177;51.520;6.764;2023-03-01T14:10:01;14.20;44.90
26503;DHT22;14177;51.520;6.764;2023-03-01T14:12:40;14.30;45.30
26503;DHT22;14177;51.520;6.764;2023-03-01T14:15:34;14.30;45.10
26503;DHT22;14177;51.520;6.764;2023-03-01T14:18:22;14.20;44.60
26503;DHT22;14177;51.520;6.764;2023-03-01T14:20:57;14.00;45.00
26503;DHT22;14177;51.520;6.764;2023-03-01T14:23:24;13.70;45.70
26503;DHT22;14177;51.520;6.764;2023-03-01T14:25:57;13.70;45.40
26503;DHT22;14177;51.520;6.764;2023-03-01T14:28:28;13.50;46.20
26503;DHT22;14177;51.520;6.764;2023-03-01T14:30:58;13.50;46.30
26503;DHT22;14177;51.520;6.764;2023-03-01T14:33:32;13.60;45.80
26503;DHT22;14177;51.520;6.764;2023-03-01T14:36:12;13.50;45.80
26503;DHT22;14177;51.520;6.764;2023-03-01T14:38:42;13.60;46.30
26503;DHT22;14177;51.520;6.764;2023-03-01T14:41:22;13.60;45.70
26503;DHT22;14177;51.520;6.764;2023-03-01T14:43:55;13.70;45.30
26503;DHT22;14177;51.520;6.764;2023-03-01T14:46:37;13.70;45.40
26503;DHT22;14177;51.520;6.764;2023-03-01T14:49:11;13.70;45.30
26503;DHT22;14177;51.520;6.764;2023-03-01T14:51:47;13.60;45.20
26503;DHT22;14177;51.520;6.764;2023-03-01T14:57:19;13.40;46.00
26503;DHT22;14177;51.520;6.764;2023-03-01T14:59:55;13.20;46.30
26503;DHT22;14177;51.520;6.764;2023-03-01T15:02:27;13.00;45.80
26503;DHT22;14177;51.520;6.764;2023-03-01T15:04:58;12.90;46.20
26503;DHT22;14177;51.520;6.764;2023-03-01T15:07:33;12.90;46.40
26503;DHT22;14177;51.520;6.764;2023-03-01T15:10:05;12.90;46.70
26503;DHT22;14177;51.520;6.764;2023-03-01T15:12:40;13.10;46.70
26503;DHT22;14177;51.520;6.764;2023-03-01T15:15:35;13.00;45.90
26503;DHT22;14177;51.520;6.764;2023-03-01T15:18:13;12.80;46.00
26503;DHT22;14177;51.520;6.764;2023-03-01T15:20:43;12.60;45.90
26503;DHT22;14177;51.520;6.764;2023-03-01T15:25:55;12.40;46.50
26503;DHT22;14177;51.520;6.764;2023-03-01T15:28:32;12.30;46.00
26503;DHT22;14177;51.520;6.764;2023-03-01T15:31:24;12.30;46.60
26503;DHT22;14177;51.520;6.764;2023-03-01T15:34:11;12.10;46.20
26503;DHT22;14177;51.520;6.764;2023-03-01T15:36:50;12.00;46.90
26503;DHT22;14177;51.520;6.764;2023-03-01T15:39:27;11.90;47.10
26503;DHT22;14177;51.520;6.764;2023-03-01T15:41:56;11.80;47.40
26503;DHT22;14177;51.520;6.764;2023-03-01T15:44:27;11.80;47.30
26503;DHT22;14177;51.520;6.764;2023-03-01T15:47:29;11.70;47.40
26503;DHT22;14177;51.520;6.764;2023-03-01T15:49:59;11.60;47.10
26503;DHT22;14177;51.520;6.764;2023-03-01T15:52:48;11.50;46.50
26503;DHT22;14177;51.520;6.764;2023-03-01T15:55:22;11.30;47.00
26503;DHT22;14177;51.520;6.764;2023-03-01T15:58:02;11.20;47.50
26503;DHT22;14177;51.520;6.764;2023-03-01T16:00:36;11.00;47.40
26503;DHT22;14177;51.520;6.764;2023-03-01T16:03:12;11.00;48.10
26503;DHT22;14177;51.520;6.764;2023-03-01T16:05:39;10.90;48.40
26503;DHT22;14177;51.520;6.764;2023-03-01T16:08:06;10.90;48.90
26503;DHT22;14177;51.520;6.764;2023-03-01T16:10:34;10.90;49.50
26503;DHT22;14177;51.520;6.764;2023-03-01T16:13:02;10.80;49.40
26503;DHT22;14177;51.520;6.764;2023-03-01T16:15:31;10.70;50.10
26503;DHT22;14177;51.520;6.764;2023-03-01T16:18:01;10.60;50.40
26503;DHT22;14177;51.520;6.764;2023-03-01T16:20:29;10.50;50.60
26503;DHT22;14177;51.520;6.764;2023-03-01T16:23:01;10.40;50.80
26503;DHT22;14177;51.520;6.764;2023-03-01T16:25:33;10.30;51.10
26503;DHT22;14177;51.520;6.764;2023-03-01T16:28:01;10.10;51.40
26503;DHT22;14177;51.520;6.764;2023-03-01T16:30:31;10.00;51.70
26503;DHT22;14177;51.520;6.764;2023-03-01T16:32:59;9.90;52.60
26503;DHT22;14177;51.520;6.764;2023-03-01T16:35:27;9.80;52.50
26503;DHT22;14177;51.520;6.764;2023-03-01T16:37:54;9.70;52.80
26503;DHT22;14177;51.520;6.764;2023-03-01T16:40:28;9.60;52.30
26503;DHT22;14177;51.520;6.764;2023-03-01T16:42:56;9.40;52.60
26503;DHT22;14177;51.520;6.764;2023-03-01T16:45:34;9.20;53.60
26503;DHT22;14177;51.520;6.764;2023-03-01T16:48:03;9.30;53.40
26503;DHT22;14177;51.520;6.764;2023-03-01T16:50:30;9.40;53.30
26503;DHT22;14177;51.520;6.764;2023-03-01T16:52:57;9.60;53.10
26503;DHT22;14177;51.520;6.764;2023-03-01T16:55:24;9.50;53.50
26503;DHT22;14177;51.520;6.764;2023-03-01T16:57:51;9.20;53.30
26503;DHT22;14177;51.520;6.764;2023-03-01T17:00:19;8.80;54.00
26503;DHT22;14177;51.520;6.764;2023-03-01T17:02:46;8.50;54.50
26503;DHT22;14177;51.520;6.764;2023-03-01T17:05:13;8.30;55.00
26503;DHT22;14177;51.520;6.764;2023-03-01T17:07:40;8.10;55.40
26503;DHT22;14177;51.520;6.764;2023-03-01T17:10:10;7.90;55.90
26503;DHT22;14177;51.520;6.764;2023-03-01T17:12:38;7.70;56.40
26503;DHT22;14177;51.520;6.764;2023-03-01T17:15:06;7.50;56.70
26503;DHT22;14177;51.520;6.764;2023-03-01T17:17:33;7.40;57.20
26503;DHT22;14177;51.520;6.764;2023-03-01T17:20:01;7.30;57.20
26503;DHT22;14177;51.520;6.764;2023-03-01T17:22:30;7.20;57.80
26503;DHT22;14177;51.520;6.764;2023-03-01T17:24:57;7.10;58.00
26503;DHT22;14177;51.520;6.764;2023-03-01T17:27:24;7.00;58.10
26503;DHT22;14177;51.520;6.764;2023-03-01T17:29:51;6.80;58.40
26503;DHT22;14177;51.520;6.764;2023-03-01T17:32:19;6.70;58.40
26503;DHT22;14177;51.520;6.764;2023-03-01T17:34:46;6.70;58.60
26503;DHT22;14177;51.520;6.764;2023-03-01T17:37:13;6.60;59.00
26503;DHT22;14177;51.520;6.764;2023-03-01T17:39:40;6.50;59.00
26503;DHT22;14177;51.520;6.764;2023-03-01T17:42:07;6.40;59.30
26503;DHT22;14177;51.520;6.764;2023-03-01T17:44:34;6.40;59.70
26503;DHT22;14177;51.520;6.764;2023-03-01T17:47:02;6.30;59.90
26503;DHT22;14177;51.520;6.764;2023-03-01T17:49:30;6.20;60.10
26503;DHT22;14177;51.520;6.764;2023-03-01T17:51:57;6.10;60.40